createdAt,value
2022-10-31T00:00:57.000Z,6.80
2022-10-31T00:20:57.000Z,17.00
2022-10-31T00:30:57.000Z,15.40
2022-10-31T00:40:57.000Z,7.00
2022-10-31T00:50:57.000Z,3.10
2022-10-31T01:00:56.000Z,5.10
2022-10-31T01:10:56.000Z,7.10
2022-10-31T01:20:56.000Z,4.20
2022-10-31T01:30:56.000Z,5.10
2022-10-31T01:50:56.000Z,4.90
2022-10-31T02:00:56.000Z,3.90
2022-10-31T02:10:55.000Z,4.50
2022-10-31T02:20:55.000Z,2.70
2022-10-31T02:30:55.000Z,2.80
2022-10-31T02:40:55.000Z,3.40
2022-10-31T02:50:55.000Z,3.90
2022-10-31T03:00:55.000Z,14.70
2022-10-31T03:20:55.000Z,4.40
2022-10-31T03:30:54.000Z,10.20
2022-10-31T03:40:54.000Z,8.30
2022-10-31T03:50:54.000Z,5.30
2022-10-31T04:00:54.000Z,2.80
2022-10-31T04:10:54.000Z,7.40
2022-10-31T04:20:54.000Z,10.00
2022-10-31T04:30:54.000Z,5.60
2022-10-31T04:50:53.000Z,2.90
2022-10-31T05:00:53.000Z,14.70
2022-10-31T05:10:53.000Z,10.00
2022-10-31T05:20:53.000Z,5.60
2022-10-31T05:30:53.000Z,8.20
2022-10-31T05:40:53.000Z,6.70
2022-10-31T05:50:52.000Z,7.30
2022-10-31T06:00:52.000Z,6.70
2022-10-31T06:20:52.000Z,11.40
2022-10-31T06:30:52.000Z,7.10
2022-10-31T06:40:52.000Z,7.20
2022-10-31T06:50:52.000Z,4.50
2022-10-31T07:00:52.000Z,7.40
2022-10-31T07:10:51.000Z,7.00
2022-10-31T07:20:51.000Z,5.20
2022-10-31T07:30:51.000Z,4.10
2022-10-31T07:50:51.000Z,4.20
2022-10-31T08:00:51.000Z,5.20
2022-10-31T08:10:51.000Z,9.00
2022-10-31T08:20:50.000Z,6.80
2022-10-31T08:30:50.000Z,9.10
2022-10-31T08:40:50.000Z,3.80
2022-10-31T08:50:50.000Z,3.80
2022-10-31T09:00:50.000Z,22.90
2022-10-31T09:20:50.000Z,33.50
2022-10-31T09:30:50.000Z,30.10
2022-10-31T09:40:49.000Z,22.30
2022-10-31T09:50:49.000Z,22.40
2022-10-31T10:00:49.000Z,21.40
2022-10-31T10:10:49.000Z,21.70
2022-10-31T10:20:49.000Z,28.70
2022-10-31T10:30:49.000Z,34.60
2022-10-31T10:50:48.000Z,20.40
2022-10-31T11:00:48.000Z,20.20
2022-10-31T11:10:48.000Z,20.40
2022-10-31T11:20:48.000Z,22.30
2022-10-31T11:30:48.000Z,17.40
2022-10-31T11:40:48.000Z,26.90
2022-10-31T11:50:48.000Z,25.30
2022-10-31T12:00:47.000Z,20.50
2022-10-31T12:20:47.000Z,24.60
2022-10-31T12:30:47.000Z,16.90
2022-10-31T12:40:47.000Z,29.00
2022-10-31T12:50:47.000Z,26.70
2022-10-31T13:00:47.000Z,28.10
2022-10-31T13:10:46.000Z,25.00
2022-10-31T13:20:46.000Z,39.20
2022-10-31T13:30:46.000Z,32.00
2022-10-31T13:50:46.000Z,28.10
2022-10-31T14:00:46.000Z,29.30
2022-10-31T14:10:46.000Z,35.90
2022-10-31T14:20:46.000Z,32.30
2022-10-31T14:30:45.000Z,34.10
2022-10-31T14:40:45.000Z,29.50
2022-10-31T14:50:45.000Z,29.30
2022-10-31T15:00:45.000Z,23.80
2022-10-31T15:20:45.000Z,23.40
2022-10-31T15:30:45.000Z,35.40
2022-10-31T15:40:44.000Z,39.20
2022-10-31T15:50:44.000Z,34.90
2022-10-31T16:00:44.000Z,34.50
2022-10-31T16:10:44.000Z,45.20
2022-10-31T16:20:44.000Z,32.70
2022-10-31T16:30:44.000Z,29.20
2022-10-31T16:50:43.000Z,48.80
2022-10-31T17:00:43.000Z,43.10
2022-10-31T17:10:43.000Z,32.60
2022-10-31T17:20:43.000Z,42.20
2022-10-31T17:30:43.000Z,40.20
2022-10-31T17:40:43.000Z,39.60
2022-10-31T17:50:43.000Z,53.40
2022-10-31T18:00:43.000Z,30.40
2022-10-31T18:20:42.000Z,40.90
2022-10-31T18:30:42.000Z,35.90
2022-10-31T18:40:42.000Z,42.70
2022-10-31T18:50:42.000Z,63.90
2022-10-31T19:00:42.000Z,49.30
2022-10-31T19:10:42.000Z,47.40
2022-10-31T19:20:41.000Z,54.80
2022-10-31T19:30:41.000Z,56.00
2022-10-31T19:30:41.000Z,56.00
2022-10-31T19:50:41.000Z,29.60
2022-10-31T20:00:41.000Z,40.40
2022-10-31T20:10:41.000Z,45.70
2022-10-31T20:20:41.000Z,40.30
2022-10-31T20:30:40.000Z,21.20
2022-10-31T20:40:40.000Z,39.40
2022-10-31T20:50:40.000Z,38.50
2022-10-31T21:00:40.000Z,28.00
2022-10-31T21:20:40.000Z,28.50
2022-10-31T21:30:40.000Z,36.90
2022-10-31T21:40:40.000Z,24.40
2022-10-31T21:50:39.000Z,24.80
2022-10-31T22:00:39.000Z,26.80
2022-10-31T22:10:39.000Z,20.90
2022-10-31T22:20:39.000Z,20.00
2022-10-31T22:30:39.000Z,18.80
2022-10-31T22:50:39.000Z,25.30
2022-10-31T23:00:38.000Z,24.30
2022-10-31T23:10:38.000Z,17.90
2022-10-31T23:20:38.000Z,23.40
2022-10-31T23:30:38.000Z,22.30
2022-10-31T23:40:38.000Z,16.80
2022-10-31T23:50:38.000Z,22.40
